createdAt,value
2023-05-14T01:26:40.336Z,10.63
2023-05-14T01:38:19.867Z,10.90
2023-05-14T01:55:38.364Z,10.88
2023-05-14T02:13:06.822Z,10.70
2023-05-14T02:15:54.189Z,10.98
2023-05-14T02:18:40.325Z,11.27
2023-05-14T02:22:06.804Z,11.65
2023-05-14T02:24:54.446Z,11.48
2023-05-14T02:27:41.658Z,11.38
2023-05-14T02:30:28.657Z,11.18
2023-05-14T02:33:15.617Z,11.60
2023-05-14T02:36:01.834Z,12.20
2023-05-14T02:38:48.349Z,12.00
2023-05-14T02:41:34.616Z,11.85
2023-05-14T02:44:20.814Z,11.73
2023-05-14T02:47:07.217Z,11.35
2023-05-14T02:49:53.825Z,11.73
2023-05-14T02:52:40.547Z,12.13
2023-05-14T02:55:26.676Z,11.55
2023-05-14T02:58:12.941Z,11.55
2023-05-14T03:00:59.643Z,12.30
2023-05-14T03:03:46.670Z,12.07
2023-05-14T03:06:33.542Z,12.02
2023-05-14T03:09:20.263Z,12.10
2023-05-14T03:12:07.419Z,12.38
2023-05-14T03:14:53.747Z,11.77
2023-05-14T03:17:39.779Z,12.18
2023-05-14T03:20:26.285Z,12.00
2023-05-14T03:23:12.901Z,12.30
2023-05-14T03:25:59.114Z,12.20
2023-05-14T03:28:45.486Z,12.60
2023-05-14T03:31:32.853Z,11.13
2023-05-14T03:34:20.151Z,11.10
2023-05-14T03:37:06.374Z,11.68
2023-05-14T03:39:52.733Z,11.63
2023-05-14T03:42:38.992Z,11.13
2023-05-14T03:45:25.174Z,11.10
2023-05-14T03:48:12.264Z,10.40
2023-05-14T03:50:58.240Z,10.77
2023-05-14T03:53:44.484Z,10.25
2023-05-14T03:56:32.293Z,10.10
2023-05-14T03:59:18.484Z,10.15
2023-05-14T04:02:05.446Z,10.48
2023-05-14T04:04:52.423Z,10.50
2023-05-14T04:07:40.354Z,10.30
2023-05-14T04:10:26.488Z,11.05
2023-05-14T04:13:13.305Z,10.98
2023-05-14T04:16:00.752Z,11.30
2023-05-14T04:18:47.429Z,11.10
2023-05-14T04:21:34.905Z,11.70
2023-05-14T04:24:21.424Z,11.43
2023-05-14T04:27:08.256Z,12.10
2023-05-14T04:29:54.716Z,11.73
2023-05-14T04:32:41.072Z,11.77
2023-05-14T04:35:27.775Z,12.32
2023-05-14T04:38:17.968Z,12.63
2023-05-14T04:41:05.329Z,12.13
2023-05-14T04:43:51.653Z,12.82
2023-05-14T04:46:38.393Z,11.98
2023-05-14T04:49:25.101Z,12.23
2023-05-14T04:52:11.185Z,12.30
2023-05-14T04:55:15.440Z,12.18
2023-05-14T04:58:02.180Z,12.57
2023-05-14T05:00:49.058Z,12.30
2023-05-14T05:03:35.773Z,12.10
2023-05-14T05:06:22.781Z,11.95
2023-05-14T05:09:09.986Z,11.95
2023-05-14T05:11:56.080Z,10.80
2023-05-14T05:14:42.434Z,11.13
2023-05-14T05:17:30.371Z,12.27
2023-05-14T05:20:16.571Z,11.38
2023-05-14T05:23:02.874Z,11.85
2023-05-14T05:25:48.997Z,11.88
2023-05-14T05:28:35.398Z,10.00
2023-05-14T05:31:23.063Z,10.13
2023-05-14T05:34:09.354Z,9.77
2023-05-14T05:36:58.063Z,9.25
2023-05-14T05:39:52.616Z,8.63
2023-05-14T05:42:38.811Z,8.45
2023-05-14T05:45:25.189Z,9.02
2023-05-14T05:48:11.967Z,7.00
2023-05-14T05:50:58.295Z,7.07
2023-05-14T05:53:44.386Z,6.53
2023-05-14T05:56:30.985Z,6.85
2023-05-14T05:59:17.047Z,5.95
2023-05-14T06:02:03.337Z,6.60
2023-05-14T06:04:49.406Z,5.78
2023-05-14T06:07:35.992Z,6.00
2023-05-14T06:10:22.752Z,6.60
2023-05-14T06:13:09.144Z,5.85
2023-05-14T06:15:57.137Z,6.20
2023-05-14T06:18:43.843Z,5.68
2023-05-14T06:21:33.297Z,5.60
2023-05-14T06:24:20.912Z,5.13
2023-05-14T06:27:10.049Z,5.65
2023-05-14T06:29:56.789Z,5.20
2023-05-14T06:32:43.664Z,5.18
2023-05-14T06:35:29.795Z,5.43
2023-05-14T06:38:15.860Z,5.03
2023-05-14T06:41:02.129Z,4.72
2023-05-14T06:43:55.386Z,5.50
2023-05-14T06:46:42.258Z,5.20
2023-05-14T06:49:28.995Z,5.07
2023-05-14T06:52:15.620Z,5.70
2023-05-14T06:55:02.090Z,4.65
2023-05-14T06:57:49.030Z,4.90
2023-05-14T07:00:35.774Z,4.82
2023-05-14T07:03:22.556Z,4.78
2023-05-14T07:06:10.852Z,4.85
2023-05-14T07:08:58.064Z,4.50
2023-05-14T07:11:44.275Z,4.57
2023-05-14T07:14:30.474Z,4.40
2023-05-14T07:17:16.837Z,5.22
2023-05-14T07:20:03.255Z,4.32
2023-05-14T07:22:49.515Z,4.75
2023-05-14T07:25:35.677Z,4.95
2023-05-14T07:28:21.897Z,4.97
2023-05-14T07:31:09.295Z,5.47
2023-05-14T07:33:55.834Z,5.03
2023-05-14T07:36:42.944Z,4.88
2023-05-14T07:39:28.962Z,4.88
2023-05-14T07:42:24.668Z,4.85
2023-05-14T07:45:18.248Z,4.43
2023-05-14T07:48:05.148Z,4.35
2023-05-14T07:50:52.031Z,4.38
2023-05-14T07:53:39.143Z,4.28
2023-05-14T07:56:25.842Z,6.20
2023-05-14T07:59:12.571Z,9.75
2023-05-14T08:01:58.969Z,7.47
2023-05-14T08:04:45.613Z,6.20
2023-05-14T08:07:31.687Z,9.60
2023-05-14T08:10:17.842Z,10.95
2023-05-14T08:13:08.189Z,10.63
2023-05-14T08:15:54.263Z,10.45
2023-05-14T08:18:42.458Z,11.20
2023-05-14T08:21:53.598Z,11.07
2023-05-14T08:28:28.174Z,16.25
2023-05-14T08:31:15.406Z,14.30
2023-05-14T08:34:02.293Z,14.85
2023-05-14T08:36:48.594Z,12.23
2023-05-14T08:39:36.962Z,10.68
2023-05-14T08:42:25.076Z,6.43
2023-05-14T08:45:34.558Z,7.68
2023-05-14T08:48:23.356Z,9.02
2023-05-14T08:51:10.117Z,9.75
2023-05-14T08:53:56.962Z,10.07
2023-05-14T08:57:03.575Z,9.40
2023-05-14T08:59:49.841Z,7.55
2023-05-14T09:02:36.405Z,8.48
2023-05-14T09:06:06.650Z,9.65
2023-05-14T09:08:53.929Z,8.70
2023-05-14T09:11:43.880Z,9.00
2023-05-14T09:14:30.511Z,11.32
2023-05-14T09:17:17.360Z,8.65
2023-05-14T09:20:04.694Z,7.30
2023-05-14T09:22:54.371Z,7.90
2023-05-14T09:25:41.125Z,7.03
2023-05-14T09:28:30.341Z,8.82
2023-05-14T09:31:16.500Z,7.78
2023-05-14T09:34:02.731Z,7.47
2023-05-14T09:36:48.803Z,10.10
2023-05-14T09:39:36.729Z,9.20
2023-05-14T09:42:23.474Z,7.50
2023-05-14T09:53:03.100Z,5.70
2023-05-14T09:55:50.015Z,10.23
2023-05-14T09:58:36.520Z,8.45
2023-05-14T10:01:23.420Z,6.43
2023-05-14T10:04:10.871Z,6.78
2023-05-14T10:06:57.369Z,7.25
2023-05-14T10:09:45.094Z,8.05
2023-05-14T10:12:34.946Z,5.45
2023-05-14T10:15:26.947Z,7.65
2023-05-14T10:18:26.147Z,9.10
2023-05-14T10:21:13.195Z,8.50
2023-05-14T10:25:30.732Z,8.20
2023-05-14T10:28:04.543Z,7.95
2023-05-14T10:30:51.216Z,10.35
2023-05-14T10:33:50.952Z,10.07
2023-05-14T10:36:45.574Z,12.05
2023-05-14T10:39:41.634Z,11.05
2023-05-14T10:42:29.396Z,10.73
2023-05-14T10:45:16.161Z,9.43
2023-05-14T10:48:02.353Z,8.70
2023-05-14T10:50:52.218Z,6.75
2023-05-14T10:53:39.566Z,8.15
2023-05-14T10:56:25.935Z,7.78
2023-05-14T10:59:12.967Z,7.18
2023-05-14T11:01:59.719Z,4.90
2023-05-14T11:04:53.007Z,4.07
2023-05-14T11:07:40.923Z,12.38
2023-05-14T11:10:53.686Z,5.75
2023-05-14T11:13:40.300Z,8.17
2023-05-14T11:16:30.944Z,5.63
2023-05-14T11:19:18.133Z,5.10
2023-05-14T11:22:04.380Z,4.50
2023-05-14T11:24:50.981Z,4.20
2023-05-14T11:27:40.651Z,5.00
2023-05-14T11:30:27.628Z,4.60
2023-05-14T11:33:13.669Z,4.70
2023-05-14T11:35:59.862Z,4.82
2023-05-14T11:38:51.490Z,4.38
2023-05-14T11:41:37.722Z,3.95
2023-05-14T11:44:23.973Z,3.65
2023-05-14T11:47:10.183Z,3.78
2023-05-14T11:49:56.912Z,3.72
2023-05-14T11:56:12.581Z,3.72
2023-05-14T11:58:59.476Z,3.92
2023-05-14T12:01:50.743Z,3.53
2023-05-14T12:04:37.558Z,3.67
2023-05-14T12:07:23.884Z,3.75
2023-05-14T12:10:13.054Z,3.88
2023-05-14T12:12:59.064Z,3.80
2023-05-14T12:15:47.742Z,3.80
2023-05-14T12:18:34.663Z,3.83
2023-05-14T12:21:21.766Z,3.60
2023-05-14T12:24:52.072Z,3.30
2023-05-14T12:27:38.834Z,3.22
2023-05-14T12:30:25.226Z,4.00
2023-05-14T12:33:11.685Z,3.70
2023-05-14T12:36:07.379Z,3.90
2023-05-14T12:39:01.832Z,3.33
2023-05-14T12:41:48.186Z,3.50
2023-05-14T12:44:34.409Z,3.40
2023-05-14T12:47:20.596Z,3.85
2023-05-14T12:50:07.496Z,3.83
2023-05-14T12:52:57.950Z,3.60
2023-05-14T12:55:44.453Z,3.72
2023-05-14T12:58:30.577Z,3.63
2023-05-14T13:01:17.386Z,3.50
2023-05-14T13:04:03.790Z,3.28
2023-05-14T13:06:50.619Z,3.55
2023-05-14T13:09:39.085Z,3.65
2023-05-14T13:12:25.306Z,3.60
2023-05-14T13:15:12.445Z,3.60
2023-05-14T13:17:59.067Z,3.83
2023-05-14T13:20:47.179Z,4.03
2023-05-14T13:23:33.926Z,3.75
2023-05-14T13:26:20.449Z,3.55
2023-05-14T13:29:07.082Z,3.60
2023-05-14T13:31:53.326Z,3.80
2023-05-14T13:34:39.508Z,3.30
2023-05-14T13:37:26.545Z,3.63
2023-05-14T13:40:12.941Z,3.53
2023-05-14T13:42:59.445Z,3.30
2023-05-14T13:45:46.625Z,3.63
2023-05-14T13:48:32.900Z,3.70
2023-05-14T13:51:20.000Z,3.47
2023-05-14T13:54:06.974Z,3.63
2023-05-14T13:56:52.950Z,3.85
2023-05-14T13:59:39.106Z,3.50
2023-05-14T14:02:25.755Z,3.78
2023-05-14T14:05:12.203Z,3.70
2023-05-14T14:08:04.590Z,3.70
2023-05-14T14:10:59.620Z,3.72
2023-05-14T14:13:48.696Z,3.38
2023-05-14T14:16:34.966Z,3.45
2023-05-14T14:19:30.234Z,3.42
2023-05-14T14:22:21.236Z,3.67
2023-05-14T14:25:09.223Z,3.88
2023-05-14T14:27:56.397Z,3.60
2023-05-14T14:30:44.436Z,3.67
2023-05-14T14:33:34.768Z,4.00
2023-05-14T14:36:21.692Z,3.60
2023-05-14T14:39:12.970Z,3.80
2023-05-14T14:42:00.040Z,4.53
2023-05-14T14:44:47.515Z,3.40
2023-05-14T14:47:33.972Z,3.72
2023-05-14T14:50:21.224Z,3.70
2023-05-14T14:53:09.553Z,3.67
2023-05-14T14:55:56.853Z,3.38
2023-05-14T14:58:44.001Z,3.60
2023-05-14T15:01:30.352Z,3.50
2023-05-14T15:04:16.498Z,3.80
2023-05-14T15:07:03.069Z,3.72
2023-05-14T15:09:50.010Z,3.60
2023-05-14T15:12:37.192Z,3.60
2023-05-14T15:15:24.204Z,3.70
2023-05-14T15:18:10.535Z,3.83
2023-05-14T15:20:57.006Z,3.88
2023-05-14T15:23:43.245Z,3.97
2023-05-14T15:26:29.468Z,3.80
2023-05-14T15:29:15.805Z,3.90
2023-05-14T15:32:03.100Z,4.03
2023-05-14T15:34:49.692Z,4.28
2023-05-14T15:37:39.910Z,4.22
2023-05-14T15:40:28.388Z,4.10
2023-05-14T15:43:15.434Z,3.83
2023-05-14T15:46:02.214Z,4.10
2023-05-14T15:48:48.588Z,3.58
2023-05-14T15:51:36.231Z,3.47
2023-05-14T15:54:23.401Z,3.58
2023-05-14T15:57:10.313Z,3.92
2023-05-14T15:59:57.746Z,3.78
2023-05-14T16:02:44.474Z,3.70
2023-05-14T16:05:31.676Z,3.90
2023-05-14T16:08:18.935Z,3.55
2023-05-14T16:11:07.009Z,3.50
2023-05-14T16:13:53.451Z,3.30
2023-05-14T16:16:39.878Z,3.42
2023-05-14T16:19:26.288Z,3.28
2023-05-14T16:22:21.662Z,3.83
2023-05-14T16:25:08.636Z,3.58
2023-05-14T16:27:55.912Z,3.28
2023-05-14T16:30:42.340Z,3.15
2023-05-14T16:33:28.730Z,3.60
2023-05-14T16:36:14.865Z,3.65
2023-05-14T16:42:16.834Z,3.55
2023-05-14T16:45:03.673Z,3.88
2023-05-14T16:47:50.571Z,3.70
2023-05-14T16:50:37.268Z,3.90
2023-05-14T16:53:23.533Z,3.67
2023-05-14T16:56:09.862Z,4.07
2023-05-14T16:58:56.517Z,4.10
2023-05-14T17:01:48.631Z,3.72
2023-05-14T17:04:45.862Z,3.40
2023-05-14T17:07:32.849Z,4.10
2023-05-14T17:10:19.938Z,3.78
2023-05-14T17:13:06.176Z,3.92
2023-05-14T17:15:52.872Z,4.40
2023-05-14T17:18:56.601Z,4.93
2023-05-14T17:21:42.838Z,5.30
2023-05-14T17:24:28.923Z,5.68
2023-05-14T17:27:16.557Z,6.70
2023-05-14T17:30:03.828Z,8.02
2023-05-14T17:32:51.099Z,8.48
2023-05-14T17:35:38.435Z,9.77
2023-05-14T17:38:25.367Z,12.77
2023-05-14T17:41:11.713Z,14.43
2023-05-14T17:43:57.993Z,14.68
2023-05-14T17:46:45.525Z,14.82
2023-05-14T17:49:32.414Z,14.45
2023-05-14T17:52:18.651Z,14.40
2023-05-14T17:55:30.431Z,13.10
2023-05-14T17:58:17.345Z,12.63
2023-05-14T18:01:03.761Z,12.65
2023-05-14T18:03:50.282Z,11.77
2023-05-14T18:06:36.687Z,12.70
2023-05-14T18:09:23.017Z,12.13
2023-05-14T18:15:11.155Z,10.35
2023-05-14T18:18:00.822Z,11.65
2023-05-14T18:20:53.735Z,11.88
2023-05-14T18:23:40.920Z,11.27
2023-05-14T18:26:34.480Z,10.85
2023-05-14T18:29:23.035Z,11.38
2023-05-14T18:32:13.510Z,10.27
2023-05-14T18:35:00.164Z,10.05
2023-05-14T18:37:56.135Z,10.60
2023-05-14T18:40:43.287Z,10.40
2023-05-14T18:43:36.651Z,10.35
2023-05-14T18:46:25.569Z,13.82
2023-05-14T18:49:13.094Z,10.43
2023-05-14T18:52:02.172Z,12.45
2023-05-14T18:54:49.173Z,12.73
2023-05-14T18:57:36.353Z,12.82
2023-05-14T19:00:23.722Z,15.10
2023-05-14T19:03:10.783Z,17.23
2023-05-14T19:05:58.520Z,18.40
2023-05-14T19:08:45.388Z,18.83
2023-05-14T19:11:31.529Z,18.38
2023-05-14T19:14:17.598Z,18.40
2023-05-14T19:17:03.858Z,19.30
2023-05-14T19:19:50.456Z,18.70
2023-05-14T19:22:36.780Z,19.63
2023-05-14T19:25:24.419Z,20.65
2023-05-14T19:28:11.353Z,19.70
2023-05-14T19:30:57.784Z,20.92
2023-05-14T19:33:44.954Z,20.30
2023-05-14T19:36:32.393Z,20.63
2023-05-14T19:39:18.369Z,20.27
2023-05-14T19:42:04.552Z,19.40
2023-05-14T19:44:50.863Z,20.17
2023-05-14T19:47:37.925Z,20.40
2023-05-14T19:50:24.200Z,20.67
2023-05-14T19:53:11.276Z,19.92
2023-05-14T19:55:58.698Z,20.30
2023-05-14T19:58:45.636Z,21.35
2023-05-14T20:01:33.088Z,21.52
2023-05-14T20:04:19.927Z,21.90
2023-05-14T20:07:07.378Z,21.85
2023-05-14T20:12:54.465Z,22.33
2023-05-14T20:15:40.935Z,22.15
2023-05-14T20:18:27.340Z,22.20
2023-05-14T20:21:13.642Z,22.60
2023-05-14T20:23:59.709Z,22.58
2023-05-14T20:26:46.396Z,22.30
2023-05-14T20:29:33.170Z,24.15
2023-05-14T20:32:24.861Z,23.75
2023-05-14T20:35:11.394Z,21.73
2023-05-14T20:37:57.879Z,21.80
2023-05-14T20:40:44.658Z,21.77
2023-05-14T20:43:31.734Z,19.83
2023-05-14T20:46:18.052Z,17.48
2023-05-14T20:49:04.117Z,17.55
2023-05-14T20:51:50.458Z,20.88
2023-05-14T20:54:36.862Z,20.40
2023-05-14T20:57:23.423Z,20.08
2023-05-14T21:00:10.303Z,19.95
2023-05-14T21:02:57.503Z,17.90
2023-05-14T21:05:43.799Z,19.48
2023-05-14T21:08:33.036Z,18.85
2023-05-14T21:11:20.548Z,15.07
2023-05-14T21:14:07.529Z,15.25
2023-05-14T21:16:53.796Z,14.68
2023-05-14T21:19:39.938Z,15.48
2023-05-14T21:22:26.119Z,15.43
2023-05-14T21:25:12.354Z,14.68
2023-05-14T21:27:58.556Z,14.82
2023-05-14T21:30:44.714Z,12.90
2023-05-14T21:33:31.055Z,13.43
2023-05-14T21:36:17.919Z,13.57
2023-05-14T21:39:04.269Z,14.20
2023-05-14T21:41:51.169Z,13.38
2023-05-14T21:44:37.583Z,13.35
2023-05-14T21:47:24.078Z,13.65
2023-05-14T21:50:10.929Z,13.73
2023-05-14T21:52:57.328Z,12.57
2023-05-14T21:55:43.464Z,13.35
2023-05-14T21:58:30.277Z,13.55
2023-05-14T22:01:16.687Z,12.85
2023-05-14T22:04:03.056Z,12.82
2023-05-14T22:06:49.236Z,13.27
2023-05-14T22:09:35.588Z,12.27
2023-05-14T22:12:22.101Z,11.90
2023-05-14T22:15:09.138Z,11.80
2023-05-14T22:17:55.921Z,12.45
2023-05-14T22:20:43.490Z,12.18
2023-05-14T22:23:29.976Z,12.63
2023-05-14T22:26:16.302Z,12.50
2023-05-14T22:29:03.264Z,12.77
2023-05-14T22:31:49.867Z,12.55
2023-05-14T22:34:36.637Z,12.35
2023-05-14T22:37:23.013Z,11.95
2023-05-14T22:40:10.077Z,12.63
2023-05-14T22:42:56.194Z,12.95
2023-05-14T22:45:42.509Z,12.70
2023-05-14T22:48:28.818Z,12.70
2023-05-14T22:51:14.856Z,13.32
2023-05-14T22:54:01.156Z,12.65
2023-05-14T22:56:48.048Z,13.45
2023-05-14T22:59:34.474Z,13.57
2023-05-14T23:02:21.440Z,13.60
2023-05-14T23:05:09.053Z,13.85
2023-05-14T23:07:55.532Z,13.95
2023-05-14T23:10:42.284Z,15.65
2023-05-14T23:13:28.647Z,16.55
2023-05-14T23:16:14.928Z,17.98
2023-05-14T23:19:01.288Z,17.50
2023-05-14T23:21:47.823Z,16.88
2023-05-14T23:24:33.975Z,16.95
2023-05-14T23:27:20.341Z,16.48
2023-05-14T23:30:06.907Z,17.38
2023-05-14T23:32:52.848Z,17.27
2023-05-14T23:35:54.542Z,17.80
2023-05-14T23:38:41.121Z,17.40
2023-05-14T23:41:28.266Z,16.90
2023-05-14T23:44:15.237Z,18.05
2023-05-14T23:47:01.649Z,18.10
2023-05-14T23:49:47.960Z,18.08
2023-05-14T23:52:34.115Z,19.05
2023-05-14T23:55:20.617Z,18.50
2023-05-14T23:58:07.876Z,18.92
